Terminal Aerodrome Forecast
Issued by NWS

Home | Current Version | Previous Version | Text Only | Print | Product List | Glossary On
Versions: 1 2 3 4 5 6 7 8 9 10 11 12 13 14 15 16 17 18 19 20 21 22 23 24
000
FTUS43 KAPX 291120
TAFAPN
TAF
KAPN 291120Z 2912/3012 19006KT P6SM SCT120 BKN200
     FM291600 20010KT P6SM BKN150
     FM291800 21011G17KT P6SM SHRA BKN060
     FM292300 24007KT P6SM VCSH BKN070
     FM300800 27005KT P6SM SCT060=

USA.gov is the U.S. government's official web portal to all federal, state and local government web resources and services.